KKZ weather

Kaoh Kong Airport
Kaoh Kong, Kach Kong, Cambodia

Public forecast

Using degrees Celsius for public forecast. Weather courtesy of forecast.io.

METAR (pilot weather report)

Report is more than 6 hours old.

Closest report is Trat Airport, 56.2 nm (104.1 km) NW. Retrieved 2019/04/24 11:00 UTC (11 hours ago):

VTBO 241100Z 00000KT 7000 FEW020 SCT100 31/26 Q1006

TAF (pilot weather forecast)

Closest forecast is Trat Airport, 56.2 nm (104.1 km) NW. Retrieved 2019/04/24 18:00 UTC (4 hours ago):

TAF VTBO 241700Z 2418/2518 VRB02KT 7000 BECMG 2420/2422 5000 BR BECMG 2501/2503 22005KT 8000 NSW TEMPO 2504/2510 VRB15KT 5000 TSRA FEW018CB SCT035